sensor_id;sensor_type;location;lat;lon;timestamp;P1;durP1;ratioP1;P2;durP2;ratioP2
81864;SDS011;71313;43.514;1.500;2024-03-02T00:01:05;9.05;;;5.05;;
81864;SDS011;71313;43.514;1.500;2024-03-02T00:03:31;11.60;;;5.65;;
81864;SDS011;71313;43.514;1.500;2024-03-02T00:05:56;9.95;;;5.95;;
81864;SDS011;71313;43.514;1.500;2024-03-02T00:08:23;10.43;;;5.75;;
81864;SDS011;71313;43.514;1.500;2024-03-02T00:10:56;10.30;;;5.97;;
81864;SDS011;71313;43.514;1.500;2024-03-02T00:13:24;7.45;;;4.22;;
81864;SDS011;71313;43.514;1.500;2024-03-02T00:15:53;9.02;;;4.30;;
81864;SDS011;71313;43.514;1.500;2024-03-02T00:18:30;7.93;;;4.05;;
81864;SDS011;71313;43.514;1.500;2024-03-02T00:20:57;7.90;;;4.40;;
81864;SDS011;71313;43.514;1.500;2024-03-02T00:23:24;7.30;;;4.57;;
81864;SDS011;71313;43.514;1.500;2024-03-02T00:25:52;11.48;;;5.20;;
81864;SDS011;71313;43.514;1.500;2024-03-02T00:31:08;9.82;;;4.93;;
81864;SDS011;71313;43.514;1.500;2024-03-02T00:33:41;11.48;;;4.90;;
81864;SDS011;71313;43.514;1.500;2024-03-02T00:36:11;9.73;;;4.75;;
81864;SDS011;71313;43.514;1.500;2024-03-02T00:38:48;7.60;;;4.25;;
81864;SDS011;71313;43.514;1.500;2024-03-02T00:41:25;8.45;;;4.30;;
81864;SDS011;71313;43.514;1.500;2024-03-02T00:43:56;8.15;;;4.22;;
81864;SDS011;71313;43.514;1.500;2024-03-02T00:46:23;8.02;;;4.80;;
81864;SDS011;71313;43.514;1.500;2024-03-02T00:48:56;6.88;;;4.00;;
81864;SDS011;71313;43.514;1.500;2024-03-02T00:51:25;9.20;;;4.93;;
81864;SDS011;71313;43.514;1.500;2024-03-02T00:53:53;7.80;;;4.60;;
81864;SDS011;71313;43.514;1.500;2024-03-02T00:56:21;8.57;;;4.75;;
81864;SDS011;71313;43.514;1.500;2024-03-02T00:58:48;11.38;;;4.93;;
81864;SDS011;71313;43.514;1.500;2024-03-02T01:01:13;8.35;;;4.93;;
81864;SDS011;71313;43.514;1.500;2024-03-02T01:03:39;8.45;;;4.70;;
81864;SDS011;71313;43.514;1.500;2024-03-02T01:06:06;8.70;;;4.85;;
81864;SDS011;71313;43.514;1.500;2024-03-02T01:08:32;7.97;;;4.40;;
81864;SDS011;71313;43.514;1.500;2024-03-02T01:10:58;8.68;;;4.30;;
81864;SDS011;71313;43.514;1.500;2024-03-02T01:13:23;8.30;;;4.70;;
81864;SDS011;71313;43.514;1.500;2024-03-02T01:15:49;7.97;;;4.50;;
81864;SDS011;71313;43.514;1.500;2024-03-02T01:18:15;8.68;;;4.40;;
81864;SDS011;71313;43.514;1.500;2024-03-02T01:20:41;9.32;;;4.18;;
81864;SDS011;71313;43.514;1.500;2024-03-02T01:23:06;7.80;;;4.22;;
81864;SDS011;71313;43.514;1.500;2024-03-02T01:25:32;7.93;;;4.40;;
81864;SDS011;71313;43.514;1.500;2024-03-02T01:27:58;7.15;;;3.80;;
81864;SDS011;71313;43.514;1.500;2024-03-02T01:30:23;7.10;;;4.43;;
81864;SDS011;71313;43.514;1.500;2024-03-02T01:32:49;9.32;;;4.85;;
81864;SDS011;71313;43.514;1.500;2024-03-02T01:35:14;8.38;;;4.70;;
81864;SDS011;71313;43.514;1.500;2024-03-02T01:37:40;8.23;;;4.90;;
81864;SDS011;71313;43.514;1.500;2024-03-02T01:40:07;7.72;;;4.40;;
81864;SDS011;71313;43.514;1.500;2024-03-02T01:42:37;8.45;;;4.55;;
81864;SDS011;71313;43.514;1.500;2024-03-02T01:45:06;9.68;;;4.70;;
81864;SDS011;71313;43.514;1.500;2024-03-02T01:47:32;9.07;;;4.60;;
81864;SDS011;71313;43.514;1.500;2024-03-02T01:49:58;7.72;;;4.68;;
81864;SDS011;71313;43.514;1.500;2024-03-02T01:52:24;9.73;;;5.00;;
81864;SDS011;71313;43.514;1.500;2024-03-02T01:54:50;10.57;;;5.55;;
81864;SDS011;71313;43.514;1.500;2024-03-02T01:57:15;9.55;;;5.38;;
81864;SDS011;71313;43.514;1.500;2024-03-02T01:59:41;9.40;;;4.30;;
81864;SDS011;71313;43.514;1.500;2024-03-02T02:02:06;7.15;;;3.83;;
81864;SDS011;71313;43.514;1.500;2024-03-02T02:04:32;9.07;;;4.20;;
81864;SDS011;71313;43.514;1.500;2024-03-02T02:07:01;6.13;;;4.00;;
81864;SDS011;71313;43.514;1.500;2024-03-02T02:09:26;8.10;;;4.20;;
81864;SDS011;71313;43.514;1.500;2024-03-02T02:11:52;7.97;;;4.15;;
81864;SDS011;71313;43.514;1.500;2024-03-02T02:14:17;7.70;;;4.00;;
81864;SDS011;71313;43.514;1.500;2024-03-02T02:16:43;7.32;;;3.72;;
81864;SDS011;71313;43.514;1.500;2024-03-02T02:19:09;7.30;;;3.65;;
81864;SDS011;71313;43.514;1.500;2024-03-02T02:21:34;7.25;;;3.53;;
81864;SDS011;71313;43.514;1.500;2024-03-02T02:24:00;6.45;;;3.22;;
81864;SDS011;71313;43.514;1.500;2024-03-02T02:26:28;5.97;;;3.55;;
81864;SDS011;71313;43.514;1.500;2024-03-02T02:28:53;7.35;;;3.88;;
81864;SDS011;71313;43.514;1.500;2024-03-02T02:31:18;4.88;;;2.85;;
81864;SDS011;71313;43.514;1.500;2024-03-02T02:33:44;5.72;;;3.00;;
81864;SDS011;71313;43.514;1.500;2024-03-02T02:36:10;6.75;;;3.08;;
81864;SDS011;71313;43.514;1.500;2024-03-02T02:38:40;7.05;;;3.42;;
81864;SDS011;71313;43.514;1.500;2024-03-02T02:41:09;4.38;;;3.03;;
81864;SDS011;71313;43.514;1.500;2024-03-02T02:43:34;6.32;;;2.95;;
81864;SDS011;71313;43.514;1.500;2024-03-02T02:45:59;5.25;;;2.88;;
81864;SDS011;71313;43.514;1.500;2024-03-02T02:48:25;5.30;;;2.90;;
81864;SDS011;71313;43.514;1.500;2024-03-02T02:50:50;5.28;;;2.63;;
81864;SDS011;71313;43.514;1.500;2024-03-02T02:53:16;6.30;;;3.10;;
81864;SDS011;71313;43.514;1.500;2024-03-02T02:55:43;4.80;;;2.70;;
81864;SDS011;71313;43.514;1.500;2024-03-02T02:58:09;6.10;;;3.30;;
81864;SDS011;71313;43.514;1.500;2024-03-02T03:00:34;7.25;;;4.07;;
81864;SDS011;71313;43.514;1.500;2024-03-02T03:03:01;8.35;;;4.05;;
81864;SDS011;71313;43.514;1.500;2024-03-02T03:05:29;5.07;;;3.33;;
81864;SDS011;71313;43.514;1.500;2024-03-02T03:07:56;5.28;;;3.00;;
81864;SDS011;71313;43.514;1.500;2024-03-02T03:10:22;5.85;;;3.05;;
81864;SDS011;71313;43.514;1.500;2024-03-02T03:12:52;5.18;;;2.97;;
81864;SDS011;71313;43.514;1.500;2024-03-02T03:15:18;6.03;;;3.20;;
81864;SDS011;71313;43.514;1.500;2024-03-02T03:17:43;4.00;;;2.80;;
81864;SDS011;71313;43.514;1.500;2024-03-02T03:20:11;5.07;;;2.70;;
81864;SDS011;71313;43.514;1.500;2024-03-02T03:22:37;5.53;;;2.60;;
81864;SDS011;71313;43.514;1.500;2024-03-02T03:25:03;4.50;;;2.47;;
81864;SDS011;71313;43.514;1.500;2024-03-02T03:27:29;3.60;;;2.25;;
81864;SDS011;71313;43.514;1.500;2024-03-02T03:29:54;4.10;;;2.30;;
81864;SDS011;71313;43.514;1.500;2024-03-02T03:32:20;3.17;;;2.10;;
81864;SDS011;71313;43.514;1.500;2024-03-02T03:34:45;3.70;;;1.90;;
81864;SDS011;71313;43.514;1.500;2024-03-02T03:37:13;3.80;;;2.20;;
81864;SDS011;71313;43.514;1.500;2024-03-02T03:39:38;5.28;;;2.63;;
81864;SDS011;71313;43.514;1.500;2024-03-02T03:42:05;5.35;;;2.22;;
81864;SDS011;71313;43.514;1.500;2024-03-02T03:44:32;3.03;;;1.80;;
81864;SDS011;71313;43.514;1.500;2024-03-02T03:46:57;3.13;;;1.85;;
81864;SDS011;71313;43.514;1.500;2024-03-02T03:49:25;3.92;;;2.20;;
81864;SDS011;71313;43.514;1.500;2024-03-02T03:51:51;2.90;;;1.90;;
81864;SDS011;71313;43.514;1.500;2024-03-02T03:54:16;4.13;;;1.90;;
81864;SDS011;71313;43.514;1.500;2024-03-02T03:56:42;5.15;;;2.00;;
81864;SDS011;71313;43.514;1.500;2024-03-02T03:59:07;4.90;;;2.05;;
81864;SDS011;71313;43.514;1.500;2024-03-02T04:01:33;3.85;;;2.13;;
81864;SDS011;71313;43.514;1.500;2024-03-02T04:03:59;4.10;;;2.45;;
81864;SDS011;71313;43.514;1.500;2024-03-02T04:06:26;4.93;;;1.98;;
81864;SDS011;71313;43.514;1.500;2024-03-02T04:08:53;3.63;;;2.60;;
81864;SDS011;71313;43.514;1.500;2024-03-02T04:11:20;3.67;;;2.33;;
81864;SDS011;71313;43.514;1.500;2024-03-02T04:13:47;4.88;;;2.47;;
81864;SDS011;71313;43.514;1.500;2024-03-02T04:16:15;3.88;;;2.10;;
81864;SDS011;71313;43.514;1.500;2024-03-02T04:18:40;5.13;;;2.33;;
81864;SDS011;71313;43.514;1.500;2024-03-02T04:21:05;4.88;;;2.42;;
81864;SDS011;71313;43.514;1.500;2024-03-02T04:23:31;6.05;;;2.15;;
81864;SDS011;71313;43.514;1.500;2024-03-02T04:25:56;2.95;;;1.95;;
81864;SDS011;71313;43.514;1.500;2024-03-02T04:28:22;4.00;;;2.13;;
81864;SDS011;71313;43.514;1.500;2024-03-02T04:30:48;5.28;;;2.17;;
81864;SDS011;71313;43.514;1.500;2024-03-02T04:33:13;5.95;;;2.63;;
81864;SDS011;71313;43.514;1.500;2024-03-02T04:35:39;7.07;;;2.70;;
81864;SDS011;71313;43.514;1.500;2024-03-02T04:38:05;4.05;;;2.10;;
81864;SDS011;71313;43.514;1.500;2024-03-02T04:40:30;4.82;;;2.47;;
81864;SDS011;71313;43.514;1.500;2024-03-02T04:42:58;3.83;;;1.98;;
81864;SDS011;71313;43.514;1.500;2024-03-02T04:45:24;4.85;;;2.00;;
81864;SDS011;71313;43.514;1.500;2024-03-02T04:47:50;4.75;;;2.45;;
81864;SDS011;71313;43.514;1.500;2024-03-02T04:50:16;4.32;;;2.00;;
81864;SDS011;71313;43.514;1.500;2024-03-02T04:52:42;4.88;;;2.33;;
81864;SDS011;71313;43.514;1.500;2024-03-02T04:55:07;4.15;;;2.03;;
81864;SDS011;71313;43.514;1.500;2024-03-02T04:57:49;4.78;;;2.35;;
81864;SDS011;71313;43.514;1.500;2024-03-02T05:00:16;3.97;;;2.03;;
81864;SDS011;71313;43.514;1.500;2024-03-02T05:02:42;3.00;;;2.20;;
81864;SDS011;71313;43.514;1.500;2024-03-02T05:05:07;5.40;;;2.38;;
81864;SDS011;71313;43.514;1.500;2024-03-02T05:07:33;4.28;;;2.35;;
81864;SDS011;71313;43.514;1.500;2024-03-02T05:09:58;5.03;;;2.45;;
81864;SDS011;71313;43.514;1.500;2024-03-02T05:12:24;4.82;;;2.55;;
81864;SDS011;71313;43.514;1.500;2024-03-02T05:17:33;6.78;;;3.40;;
81864;SDS011;71313;43.514;1.500;2024-03-02T05:19:59;7.85;;;4.00;;
81864;SDS011;71313;43.514;1.500;2024-03-02T05:22:25;6.20;;;3.58;;
81864;SDS011;71313;43.514;1.500;2024-03-02T05:24:50;8.20;;;4.10;;
81864;SDS011;71313;43.514;1.500;2024-03-02T05:27:15;8.40;;;4.00;;
81864;SDS011;71313;43.514;1.500;2024-03-02T05:29:41;8.55;;;3.60;;
81864;SDS011;71313;43.514;1.500;2024-03-02T05:32:06;5.70;;;3.03;;
81864;SDS011;71313;43.514;1.500;2024-03-02T05:34:32;6.60;;;2.90;;
81864;SDS011;71313;43.514;1.500;2024-03-02T05:36:59;5.43;;;3.20;;
81864;SDS011;71313;43.514;1.500;2024-03-02T05:39:25;4.90;;;2.90;;
81864;SDS011;71313;43.514;1.500;2024-03-02T05:41:51;6.75;;;2.90;;
81864;SDS011;71313;43.514;1.500;2024-03-02T05:44:16;4.63;;;2.63;;
81864;SDS011;71313;43.514;1.500;2024-03-02T05:46:43;5.43;;;2.72;;
81864;SDS011;71313;43.514;1.500;2024-03-02T05:49:09;4.03;;;2.33;;
81864;SDS011;71313;43.514;1.500;2024-03-02T05:51:35;4.70;;;2.63;;
81864;SDS011;71313;43.514;1.500;2024-03-02T05:54:00;5.05;;;2.78;;
81864;SDS011;71313;43.514;1.500;2024-03-02T05:56:26;5.00;;;2.90;;
81864;SDS011;71313;43.514;1.500;2024-03-02T05:58:52;5.75;;;2.70;;
81864;SDS011;71313;43.514;1.500;2024-03-02T06:01:36;4.47;;;2.50;;
81864;SDS011;71313;43.514;1.500;2024-03-02T06:04:02;5.68;;;2.80;;
81864;SDS011;71313;43.514;1.500;2024-03-02T06:06:29;6.38;;;2.83;;
81864;SDS011;71313;43.514;1.500;2024-03-02T06:08:55;5.40;;;2.70;;
81864;SDS011;71313;43.514;1.500;2024-03-02T06:11:21;5.03;;;2.97;;
81864;SDS011;71313;43.514;1.500;2024-03-02T06:13:46;6.07;;;3.33;;
81864;SDS011;71313;43.514;1.500;2024-03-02T06:16:12;6.88;;;3.28;;
81864;SDS011;71313;43.514;1.500;2024-03-02T06:18:38;4.63;;;2.50;;
81864;SDS011;71313;43.514;1.500;2024-03-02T06:21:04;5.72;;;2.53;;
81864;SDS011;71313;43.514;1.500;2024-03-02T06:23:29;5.18;;;2.90;;
81864;SDS011;71313;43.514;1.500;2024-03-02T06:25:55;6.25;;;2.90;;
81864;SDS011;71313;43.514;1.500;2024-03-02T06:28:20;4.97;;;3.20;;
81864;SDS011;71313;43.514;1.500;2024-03-02T06:30:45;6.35;;;3.45;;
81864;SDS011;71313;43.514;1.500;2024-03-02T06:33:11;5.10;;;3.08;;
81864;SDS011;71313;43.514;1.500;2024-03-02T06:35:36;5.70;;;2.97;;
81864;SDS011;71313;43.514;1.500;2024-03-02T06:38:04;5.97;;;3.40;;
81864;SDS011;71313;43.514;1.500;2024-03-02T06:40:32;6.63;;;3.78;;
81864;SDS011;71313;43.514;1.500;2024-03-02T06:42:57;8.85;;;4.05;;
81864;SDS011;71313;43.514;1.500;2024-03-02T06:45:23;5.65;;;3.45;;
81864;SDS011;71313;43.514;1.500;2024-03-02T06:47:49;5.75;;;3.70;;
81864;SDS011;71313;43.514;1.500;2024-03-02T06:50:14;6.95;;;3.40;;
81864;SDS011;71313;43.514;1.500;2024-03-02T06:52:40;7.45;;;3.40;;
81864;SDS011;71313;43.514;1.500;2024-03-02T06:55:05;8.82;;;4.32;;
81864;SDS011;71313;43.514;1.500;2024-03-02T06:57:31;7.28;;;4.32;;
81864;SDS011;71313;43.514;1.500;2024-03-02T06:59:56;15.23;;;6.93;;
81864;SDS011;71313;43.514;1.500;2024-03-02T07:02:26;13.00;;;6.40;;
81864;SDS011;71313;43.514;1.500;2024-03-02T07:04:54;8.05;;;4.32;;
81864;SDS011;71313;43.514;1.500;2024-03-02T07:07:20;9.73;;;4.82;;
81864;SDS011;71313;43.514;1.500;2024-03-02T07:09:46;11.82;;;5.63;;
81864;SDS011;71313;43.514;1.500;2024-03-02T07:12:13;13.07;;;6.22;;
81864;SDS011;71313;43.514;1.500;2024-03-02T07:14:39;10.30;;;4.90;;
81864;SDS011;71313;43.514;1.500;2024-03-02T07:17:23;10.27;;;4.05;;
81864;SDS011;71313;43.514;1.500;2024-03-02T07:19:49;5.65;;;3.33;;
81864;SDS011;71313;43.514;1.500;2024-03-02T07:22:14;7.07;;;3.65;;
81864;SDS011;71313;43.514;1.500;2024-03-02T07:24:40;8.57;;;3.20;;
81864;SDS011;71313;43.514;1.500;2024-03-02T07:27:06;5.55;;;3.42;;
81864;SDS011;71313;43.514;1.500;2024-03-02T07:29:32;4.45;;;2.83;;
81864;SDS011;71313;43.514;1.500;2024-03-02T07:31:57;4.38;;;2.38;;
81864;SDS011;71313;43.514;1.500;2024-03-02T07:34:23;5.30;;;2.90;;
81864;SDS011;71313;43.514;1.500;2024-03-02T07:36:48;7.25;;;2.53;;
81864;SDS011;71313;43.514;1.500;2024-03-02T07:39:14;4.78;;;2.75;;
81864;SDS011;71313;43.514;1.500;2024-03-02T07:41:39;4.63;;;2.60;;
81864;SDS011;71313;43.514;1.500;2024-03-02T07:44:05;4.63;;;2.63;;
81864;SDS011;71313;43.514;1.500;2024-03-02T07:46:30;5.25;;;2.67;;
81864;SDS011;71313;43.514;1.500;2024-03-02T07:48:57;5.85;;;2.63;;
81864;SDS011;71313;43.514;1.500;2024-03-02T07:51:24;5.03;;;2.60;;
81864;SDS011;71313;43.514;1.500;2024-03-02T07:53:50;4.72;;;2.88;;
81864;SDS011;71313;43.514;1.500;2024-03-02T07:56:16;5.72;;;3.22;;
81864;SDS011;71313;43.514;1.500;2024-03-02T07:58:47;7.18;;;3.20;;
81864;SDS011;71313;43.514;1.500;2024-03-02T08:01:14;3.95;;;2.67;;
81864;SDS011;71313;43.514;1.500;2024-03-02T08:03:39;4.82;;;2.67;;
81864;SDS011;71313;43.514;1.500;2024-03-02T08:06:05;4.82;;;2.83;;
81864;SDS011;71313;43.514;1.500;2024-03-02T08:08:31;4.60;;;2.58;;
81864;SDS011;71313;43.514;1.500;2024-03-02T08:10:56;5.57;;;2.90;;
81864;SDS011;71313;43.514;1.500;2024-03-02T08:13:22;5.95;;;2.67;;
81864;SDS011;71313;43.514;1.500;2024-03-02T08:15:48;5.28;;;3.10;;
81864;SDS011;71313;43.514;1.500;2024-03-02T08:18:13;3.90;;;2.40;;
81864;SDS011;71313;43.514;1.500;2024-03-02T08:20:39;5.65;;;2.65;;
81864;SDS011;71313;43.514;1.500;2024-03-02T08:23:05;4.70;;;2.40;;
81864;SDS011;71313;43.514;1.500;2024-03-02T08:25:31;6.65;;;2.60;;
81864;SDS011;71313;43.514;1.500;2024-03-02T08:27:56;5.50;;;2.55;;
81864;SDS011;71313;43.514;1.500;2024-03-02T08:30:24;7.40;;;2.40;;
81864;SDS011;71313;43.514;1.500;2024-03-02T08:32:49;4.80;;;2.60;;
81864;SDS011;71313;43.514;1.500;2024-03-02T08:35:14;5.95;;;2.80;;
81864;SDS011;71313;43.514;1.500;2024-03-02T08:37:41;4.88;;;2.70;;
81864;SDS011;71313;43.514;1.500;2024-03-02T08:40:07;5.00;;;2.35;;
81864;SDS011;71313;43.514;1.500;2024-03-02T08:42:33;5.05;;;2.30;;
81864;SDS011;71313;43.514;1.500;2024-03-02T08:45:00;4.22;;;2.15;;
81864;SDS011;71313;43.514;1.500;2024-03-02T08:47:29;5.88;;;2.42;;
81864;SDS011;71313;43.514;1.500;2024-03-02T08:49:54;5.40;;;2.38;;
81864;SDS011;71313;43.514;1.500;2024-03-02T08:52:20;3.80;;;2.20;;
81864;SDS011;71313;43.514;1.500;2024-03-02T08:54:45;5.13;;;2.38;;
81864;SDS011;71313;43.514;1.500;2024-03-02T08:57:10;4.53;;;2.10;;
81864;SDS011;71313;43.514;1.500;2024-03-02T08:59:36;5.55;;;2.85;;
81864;SDS011;71313;43.514;1.500;2024-03-02T09:02:01;4.22;;;2.30;;
81864;SDS011;71313;43.514;1.500;2024-03-02T09:04:27;5.57;;;2.55;;
81864;SDS011;71313;43.514;1.500;2024-03-02T09:06:53;4.82;;;2.30;;
81864;SDS011;71313;43.514;1.500;2024-03-02T09:09:18;4.70;;;2.28;;
81864;SDS011;71313;43.514;1.500;2024-03-02T09:11:45;4.18;;;2.35;;
81864;SDS011;71313;43.514;1.500;2024-03-02T09:14:11;4.95;;;2.50;;
81864;SDS011;71313;43.514;1.500;2024-03-02T09:16:36;6.07;;;2.60;;
81864;SDS011;71313;43.514;1.500;2024-03-02T09:19:03;6.25;;;2.70;;
81864;SDS011;71313;43.514;1.500;2024-03-02T09:21:28;4.53;;;2.42;;
81864;SDS011;71313;43.514;1.500;2024-03-02T09:23:55;5.13;;;2.33;;
81864;SDS011;71313;43.514;1.500;2024-03-02T09:26:20;4.45;;;2.40;;
81864;SDS011;71313;43.514;1.500;2024-03-02T09:28:46;4.88;;;2.08;;
81864;SDS011;71313;43.514;1.500;2024-03-02T09:31:11;5.15;;;2.30;;
81864;SDS011;71313;43.514;1.500;2024-03-02T09:33:37;5.88;;;2.22;;
81864;SDS011;71313;43.514;1.500;2024-03-02T09:36:04;5.75;;;2.60;;
81864;SDS011;71313;43.514;1.500;2024-03-02T09:38:32;4.70;;;2.05;;
81864;SDS011;71313;43.514;1.500;2024-03-02T09:40:59;6.07;;;2.65;;
81864;SDS011;71313;43.514;1.500;2024-03-02T09:43:26;7.13;;;2.33;;
81864;SDS011;71313;43.514;1.500;2024-03-02T09:45:51;7.28;;;2.67;;
81864;SDS011;71313;43.514;1.500;2024-03-02T09:48:17;6.65;;;2.78;;
81864;SDS011;71313;43.514;1.500;2024-03-02T09:50:43;4.03;;;2.35;;
81864;SDS011;71313;43.514;1.500;2024-03-02T09:53:09;7.75;;;2.80;;
81864;SDS011;71313;43.514;1.500;2024-03-02T09:55:36;4.88;;;2.38;;
81864;SDS011;71313;43.514;1.500;2024-03-02T09:58:02;6.53;;;2.30;;
81864;SDS011;71313;43.514;1.500;2024-03-02T10:00:28;5.90;;;2.63;;
81864;SDS011;71313;43.514;1.500;2024-03-02T10:02:53;7.05;;;2.17;;
81864;SDS011;71313;43.514;1.500;2024-03-02T10:05:26;7.13;;;2.40;;
81864;SDS011;71313;43.514;1.500;2024-03-02T10:08:03;5.32;;;2.33;;
81864;SDS011;71313;43.514;1.500;2024-03-02T10:11:02;6.47;;;2.70;;
81864;SDS011;71313;43.514;1.500;2024-03-02T10:13:22;6.63;;;2.40;;
81864;SDS011;71313;43.514;1.500;2024-03-02T10:15:50;6.85;;;2.35;;
81864;SDS011;71313;43.514;1.500;2024-03-02T10:18:15;7.85;;;2.92;;
81864;SDS011;71313;43.514;1.500;2024-03-02T10:20:53;6.53;;;2.38;;
81864;SDS011;71313;43.514;1.500;2024-03-02T10:23:18;8.60;;;2.65;;
81864;SDS011;71313;43.514;1.500;2024-03-02T10:25:45;8.40;;;2.55;;
81864;SDS011;71313;43.514;1.500;2024-03-02T10:28:10;4.65;;;2.40;;
81864;SDS011;71313;43.514;1.500;2024-03-02T10:30:37;8.90;;;2.67;;
81864;SDS011;71313;43.514;1.500;2024-03-02T10:33:02;9.60;;;2.85;;
81864;SDS011;71313;43.514;1.500;2024-03-02T10:35:28;6.70;;;2.30;;
81864;SDS011;71313;43.514;1.500;2024-03-02T10:37:57;5.25;;;2.67;;
81864;SDS011;71313;43.514;1.500;2024-03-02T10:40:23;9.10;;;2.22;;
81864;SDS011;71313;43.514;1.500;2024-03-02T10:42:52;6.40;;;2.53;;
81864;SDS011;71313;43.514;1.500;2024-03-02T10:45:19;6.57;;;2.53;;
81864;SDS011;71313;43.514;1.500;2024-03-02T10:47:46;7.18;;;2.88;;
81864;SDS011;71313;43.514;1.500;2024-03-02T10:50:13;4.22;;;2.35;;
81864;SDS011;71313;43.514;1.500;2024-03-02T10:52:39;8.50;;;2.78;;
81864;SDS011;71313;43.514;1.500;2024-03-02T10:55:06;6.43;;;2.47;;
81864;SDS011;71313;43.514;1.500;2024-03-02T10:57:53;5.07;;;2.20;;
81864;SDS011;71313;43.514;1.500;2024-03-02T11:00:21;5.78;;;2.45;;
81864;SDS011;71313;43.514;1.500;2024-03-02T11:02:52;7.72;;;2.53;;
81864;SDS011;71313;43.514;1.500;2024-03-02T11:05:28;7.72;;;3.20;;
81864;SDS011;71313;43.514;1.500;2024-03-02T11:07:57;6.28;;;2.70;;
81864;SDS011;71313;43.514;1.500;2024-03-02T11:10:51;7.28;;;2.90;;
81864;SDS011;71313;43.514;1.500;2024-03-02T11:13:33;8.82;;;2.63;;
81864;SDS011;71313;43.514;1.500;2024-03-02T11:16:03;5.85;;;2.20;;
81864;SDS011;71313;43.514;1.500;2024-03-02T11:18:35;4.90;;;2.20;;
81864;SDS011;71313;43.514;1.500;2024-03-02T11:21:02;5.07;;;2.03;;
81864;SDS011;71313;43.514;1.500;2024-03-02T11:23:31;8.35;;;2.50;;
81864;SDS011;71313;43.514;1.500;2024-03-02T11:28:44;3.90;;;2.20;;
81864;SDS011;71313;43.514;1.500;2024-03-02T11:31:11;7.65;;;2.63;;
81864;SDS011;71313;43.514;1.500;2024-03-02T11:33:37;4.78;;;2.15;;
81864;SDS011;71313;43.514;1.500;2024-03-02T11:36:03;8.20;;;2.58;;
81864;SDS011;71313;43.514;1.500;2024-03-02T11:38:32;4.20;;;2.42;;
81864;SDS011;71313;43.514;1.500;2024-03-02T11:40:59;8.07;;;2.50;;
81864;SDS011;71313;43.514;1.500;2024-03-02T11:43:30;4.70;;;2.38;;
81864;SDS011;71313;43.514;1.500;2024-03-02T11:45:59;6.68;;;2.42;;
81864;SDS011;71313;43.514;1.500;2024-03-02T11:48:29;6.90;;;2.10;;
81864;SDS011;71313;43.514;1.500;2024-03-02T11:50:54;5.75;;;2.50;;
81864;SDS011;71313;43.514;1.500;2024-03-02T11:53:24;3.40;;;2.30;;
81864;SDS011;71313;43.514;1.500;2024-03-02T11:55:55;5.43;;;2.53;;
81864;SDS011;71313;43.514;1.500;2024-03-02T11:58:21;5.35;;;2.70;;
81864;SDS011;71313;43.514;1.500;2024-03-02T12:00:55;5.68;;;2.40;;
81864;SDS011;71313;43.514;1.500;2024-03-02T12:03:24;7.72;;;2.65;;
81864;SDS011;71313;43.514;1.500;2024-03-02T12:05:51;4.18;;;2.70;;
81864;SDS011;71313;43.514;1.500;2024-03-02T12:08:19;6.05;;;2.67;;
81864;SDS011;71313;43.514;1.500;2024-03-02T12:11:01;4.22;;;2.55;;
81864;SDS011;71313;43.514;1.500;2024-03-02T12:13:27;5.25;;;2.28;;
81864;SDS011;71313;43.514;1.500;2024-03-02T12:15:53;7.25;;;2.50;;
81864;SDS011;71313;43.514;1.500;2024-03-02T12:18:21;8.77;;;2.90;;
81864;SDS011;71313;43.514;1.500;2024-03-02T12:20:46;6.38;;;2.80;;
81864;SDS011;71313;43.514;1.500;2024-03-02T12:23:14;6.53;;;2.75;;
81864;SDS011;71313;43.514;1.500;2024-03-02T12:25:39;5.30;;;2.45;;
81864;SDS011;71313;43.514;1.500;2024-03-02T12:28:05;4.78;;;2.38;;
81864;SDS011;71313;43.514;1.500;2024-03-02T12:30:31;5.93;;;2.75;;
81864;SDS011;71313;43.514;1.500;2024-03-02T12:33:00;7.55;;;3.35;;
81864;SDS011;71313;43.514;1.500;2024-03-02T12:35:26;7.53;;;2.97;;
81864;SDS011;71313;43.514;1.500;2024-03-02T12:37:53;8.00;;;2.55;;
81864;SDS011;71313;43.514;1.500;2024-03-02T12:40:19;8.95;;;2.72;;
81864;SDS011;71313;43.514;1.500;2024-03-02T12:42:47;5.90;;;2.78;;
81864;SDS011;71313;43.514;1.500;2024-03-02T12:45:13;5.65;;;2.97;;
81864;SDS011;71313;43.514;1.500;2024-03-02T12:47:39;5.60;;;2.50;;
81864;SDS011;71313;43.514;1.500;2024-03-02T12:50:06;6.95;;;2.33;;
81864;SDS011;71313;43.514;1.500;2024-03-02T12:52:32;7.80;;;2.33;;
81864;SDS011;71313;43.514;1.500;2024-03-02T12:54:59;6.57;;;2.70;;
81864;SDS011;71313;43.514;1.500;2024-03-02T12:57:26;4.65;;;2.42;;
81864;SDS011;71313;43.514;1.500;2024-03-02T12:59:52;4.50;;;2.30;;
81864;SDS011;71313;43.514;1.500;2024-03-02T13:02:23;5.97;;;3.17;;
81864;SDS011;71313;43.514;1.500;2024-03-02T13:04:52;8.20;;;2.67;;
81864;SDS011;71313;43.514;1.500;2024-03-02T13:07:22;6.70;;;2.30;;
81864;SDS011;71313;43.514;1.500;2024-03-02T13:09:52;6.82;;;2.13;;
81864;SDS011;71313;43.514;1.500;2024-03-02T13:12:20;6.78;;;2.40;;
81864;SDS011;71313;43.514;1.500;2024-03-02T13:14:49;4.93;;;2.00;;
81864;SDS011;71313;43.514;1.500;2024-03-02T13:17:17;3.95;;;2.55;;
81864;SDS011;71313;43.514;1.500;2024-03-02T13:19:50;5.57;;;2.00;;
81864;SDS011;71313;43.514;1.500;2024-03-02T13:22:23;4.47;;;1.70;;
81864;SDS011;71313;43.514;1.500;2024-03-02T13:24:51;5.15;;;2.53;;
81864;SDS011;71313;43.514;1.500;2024-03-02T13:27:19;5.78;;;3.03;;
81864;SDS011;71313;43.514;1.500;2024-03-02T13:29:46;7.10;;;3.20;;
81864;SDS011;71313;43.514;1.500;2024-03-02T13:32:13;5.35;;;2.67;;
81864;SDS011;71313;43.514;1.500;2024-03-02T13:34:41;4.90;;;2.13;;
81864;SDS011;71313;43.514;1.500;2024-03-02T13:37:07;5.93;;;2.10;;
81864;SDS011;71313;43.514;1.500;2024-03-02T13:39:33;6.43;;;2.40;;
81864;SDS011;71313;43.514;1.500;2024-03-02T13:42:04;9.45;;;2.55;;
81864;SDS011;71313;43.514;1.500;2024-03-02T13:44:34;6.88;;;2.00;;
81864;SDS011;71313;43.514;1.500;2024-03-02T13:47:02;6.93;;;2.28;;
81864;SDS011;71313;43.514;1.500;2024-03-02T13:49:29;3.88;;;2.03;;
81864;SDS011;71313;43.514;1.500;2024-03-02T13:52:05;5.30;;;2.15;;
81864;SDS011;71313;43.514;1.500;2024-03-02T13:54:40;4.85;;;1.83;;
81864;SDS011;71313;43.514;1.500;2024-03-02T13:57:08;4.35;;;2.10;;
81864;SDS011;71313;43.514;1.500;2024-03-02T13:59:34;5.45;;;2.10;;
81864;SDS011;71313;43.514;1.500;2024-03-02T14:02:04;5.03;;;2.50;;
81864;SDS011;71313;43.514;1.500;2024-03-02T14:04:33;3.25;;;2.20;;
81864;SDS011;71313;43.514;1.500;2024-03-02T14:07:00;5.63;;;2.33;;
81864;SDS011;71313;43.514;1.500;2024-03-02T14:09:26;4.53;;;2.20;;
81864;SDS011;71313;43.514;1.500;2024-03-02T14:11:52;5.05;;;2.05;;
81864;SDS011;71313;43.514;1.500;2024-03-02T14:14:18;5.45;;;2.33;;
81864;SDS011;71313;43.514;1.500;2024-03-02T14:16:44;6.85;;;3.92;;
81864;SDS011;71313;43.514;1.500;2024-03-02T14:19:10;7.25;;;2.58;;
81864;SDS011;71313;43.514;1.500;2024-03-02T14:21:36;8.10;;;2.92;;
81864;SDS011;71313;43.514;1.500;2024-03-02T14:24:02;6.47;;;3.67;;
81864;SDS011;71313;43.514;1.500;2024-03-02T14:26:27;5.18;;;2.90;;
81864;SDS011;71313;43.514;1.500;2024-03-02T14:28:53;4.88;;;2.22;;
81864;SDS011;71313;43.514;1.500;2024-03-02T14:31:19;5.43;;;2.90;;
81864;SDS011;71313;43.514;1.500;2024-03-02T14:33:45;4.43;;;2.30;;
81864;SDS011;71313;43.514;1.500;2024-03-02T14:36:11;7.45;;;2.40;;
81864;SDS011;71313;43.514;1.500;2024-03-02T14:38:37;5.05;;;2.47;;
81864;SDS011;71313;43.514;1.500;2024-03-02T14:41:03;4.60;;;2.08;;
81864;SDS011;71313;43.514;1.500;2024-03-02T14:43:29;5.55;;;1.90;;
81864;SDS011;71313;43.514;1.500;2024-03-02T14:45:56;3.85;;;2.10;;
81864;SDS011;71313;43.514;1.500;2024-03-02T14:48:24;4.70;;;2.00;;
81864;SDS011;71313;43.514;1.500;2024-03-02T14:50:50;4.93;;;2.30;;
81864;SDS011;71313;43.514;1.500;2024-03-02T14:53:16;4.72;;;1.90;;
81864;SDS011;71313;43.514;1.500;2024-03-02T14:55:44;5.93;;;1.85;;